Nearby METAR Reports

 

KSJC - San Jose, California, USA
Distance from station: NE 9mi, 14km
Updated: Mon, 05/27/2024 2:53pm
Few Clouds
Few Clouds
 Wind from varies
Wind: varies 6 mph, 9 km/h
Temperature: 72°F, 22°C
Dew Point: 48°F, 9°C
Humidity: 44%
Barometer: 30.05 inHg, 1017.6 hPa
Clouds: Few Clouds
Visibility: 10 miles, 16 km
Cloud details: Few Clouds 1400 ft
2024/05/27 18:53 KSJC 271853Z VRB05KT 10SM FEW014 22/09 A3005 RMK AO2 SLP174 T02170094
KNUQ - Moffett Nas/Mtn, California, USA
Distance from station: N 9mi, 14km
Updated: Mon, 05/27/2024 2:55pm
Clear
Clear
 Wind from N
Wind: N 8 mph, 13 km/h
Temperature: 64°F, 18°C
Dew Point: 54°F, 12°C
Humidity: 68%
Barometer: 30.06 inHg, 1017.9 hPa
Clouds: Clear
Visibility: 8 miles, 13 km
2024/05/27 18:55 KNUQ 271855Z AUTO 35007KT 8SM CLR 18/12 A3006 RMK AO2
 
KPAO - Palo Alto, California, USA
Distance from station: NNW 14mi, 23km
Updated: Mon, 05/27/2024 2:47pm
Clear
Clear
 Wind from N
Wind: N 6 mph, 9 km/h
Temperature: 63°F, 17°C
Dew Point: 52°F, 11°C
Humidity: 68%
Barometer: 30.07 inHg, 1018.3 hPa
Clouds: Clear
Visibility: 10 miles, 16 km
2024/05/27 18:47 KPAO 271847Z 36005KT 10SM SKC 17/11 A3007
KRHV - San Jose/Reid, California, USA
Distance from station: ENE 12mi, 19km
Updated: Mon, 05/27/2024 2:50pm
Clear
Clear
 Wind from calm
Wind: Calm
Temperature: 70°F, 21°C
Dew Point: 50°F, 10°C
Humidity: 50%
Barometer: 30.06 inHg, 1017.9 hPa
Clouds: Clear
Visibility: 10 miles, 16 km
2024/05/27 18:50 KRHV 271850Z 00000KT 10SM SKC 21/10 A3006
 
KOAK - Oakland, California, USA
Distance from station: NNW 31mi, 50km
Updated: Mon, 05/27/2024 2:53pm
Few Clouds
Few Clouds
 Wind from W
Wind: W 6 mph, 9 km/h
Temperature: 59°F, 15°C
Dew Point: 50°F, 10°C
Humidity: 72%
Barometer: 30.09 inHg, 1019 hPa
Clouds: Few Clouds
Visibility: 10 miles, 16 km
Cloud details: Few Clouds 1300 ft
2024/05/27 18:53 KOAK 271853Z 27005KT 10SM FEW013 15/10 A3009 RMK AO2 SLP188 T01500100
KSQL - San Carlos Airpo, California, USA
Distance from station: NW 21mi, 34km
Updated: Mon, 05/27/2024 1:47pm
Clear
Clear
 Wind from WNW
Wind: WNW 17 mph, 28 km/h
Temperature: 63°F, 17°C
Dew Point: 46°F, 8°C
Humidity: 56%
Barometer: 30.07 inHg, 1018.3 hPa
Clouds: Clear
Visibility: 10 miles, 16 km
2024/05/27 17:47 KSQL 271747Z 29015KT 10SM CLR 17/08 A3007
 
KSFO - San Francisco, California, USA
Distance from station: NW 30mi, 49km
Updated: Mon, 05/27/2024 2:56pm
Few Clouds
Few Clouds
 Wind from W
Wind: W 16 mph, 26 km/h
Temperature: 64°F, 18°C
Dew Point: 48°F, 9°C
Humidity: 56%
Barometer: 30.07 inHg, 1018.3 hPa
Clouds: Few Clouds
Visibility: 10 miles, 16 km
Cloud details: Few Clouds 600 ft
2024/05/27 18:56 KSFO 271856Z 27014KT 10SM FEW006 18/09 A3007 RMK AO2 SLP181 T01780094
KE16 - San Martin, California, USA
Distance from station: ESE 27mi, 43km
Updated: Mon, 05/27/2024 2:35pm
Clear
Clear
 Wind from S
Wind: S 7 mph, 11 km/h
Temperature: 61°F, 16°C
Dew Point: 48°F, 9°C
Humidity: 63%
Barometer: 30.09 inHg, 1019 hPa
Clouds: Clear
Visibility: 10 miles, 16 km
2024/05/27 18:35 KE16 271835Z AUTO 18006KT 10SM CLR 16/09 A3009 RMK AO2 PWINO PNO
 
KWVI - Watsonville, California, USA
Distance from station: SSE 27mi, 44km
Updated: Mon, 05/27/2024 2:53pm
Overcast
Overcast
 Wind from SW
Wind: SW 6 mph, 9 km/h
Temperature: 59°F, 15°C
Dew Point: 52°F, 11°C
Humidity: 77%
Barometer: 30.10 inHg, 1019.3 hPa
Clouds: Overcast
Visibility: 10 miles, 16 km
Cloud details: Overcast 1400 ft
2024/05/27 18:53 KWVI 271853Z AUTO 23005KT 10SM OVC014 15/11 A3010 RMK AO2 SLP191 T01500106
KHAF - Half Moon Bay, California, USA
Distance from station: WNW 31mi, 50km
Updated: Mon, 05/27/2024 2:55pm
Mist, Overcast
Mist, Overcast
 Wind from WSW
Wind: WSW 5 mph, 7 km/h
Temperature: 54°F, 12°C
Dew Point: 52°F, 11°C
Humidity: 94%
Barometer: 30.11 inHg, 1019.6 hPa
Summary: Mist
Clouds: Overcast
Visibility: 6 miles, 10 km
Cloud details: Overcast 1300 ft
2024/05/27 18:55 KHAF 271855Z AUTO 25004KT 6SM BR OVC013 12/11 A3011 RMK AO2
 
KHWD - Hayward, California, USA
Distance from station: N 28mi, 44km
Updated: Mon, 05/27/2024 2:54pm
Clear
Clear
 Wind from W
Wind: W 8 mph, 13 km/h
Temperature: 63°F, 17°C
Dew Point: 50°F, 10°C
Humidity: 64%
Barometer: 30.06 inHg, 1017.9 hPa
Clouds: Clear
Visibility: 10 miles, 16 km
2024/05/27 18:54 KHWD 271854Z 26007KT 10SM CLR 17/10 A3006 RMK AO2 SLP190 T01720100
KLVK - Livermore, California, USA
Distance from station: NNE 31mi, 51km
Updated: Mon, 05/27/2024 2:53pm
Clear
Clear
 Wind from NW
Wind: NW 7 mph, 11 km/h
Temperature: 72°F, 22°C
Dew Point: 52°F, 11°C
Humidity: 50%
Barometer: 30.03 inHg, 1016.9 hPa
Clouds: Clear
Visibility: 10 miles, 16 km
2024/05/27 18:53 KLVK 271853Z 31006KT 10SM CLR 22/11 A3003 RMK AO2 SLP165 T02170106
Number of visitors since April 1, 2024
Free Website Hit Counter
Free website hit counter